Latest Weather Observations for Bushy Park

IDT60901

Issued at 8:21 am EST Friday 23 June 2017 (issued every 10 minutes, with the page automatically refreshed every 10 minutes)

About weather observations | Map of Hobart area stations | Latest observations for Hobart area | Other Formats
Station Details ID: 095003 Name: BUSHY PARK (BUSHY PARK ESTATES) Lat: -42.71 Lon: 146.90 Height: 27.0 m
Data from the previous 72 hours. | See also: Recent months at Bushy Park
Date/Time
EST
Temp
°C
App
Temp
°C
Dew
Point
°C
Rel
Hum
%
Delta-T
°C
Wind Press
QNH
hPa
Press
MSL
hPa
Rain since
9am
mm
Dir  Spd
km/h
Gust
km/h
Spd
kts
Gust
kts
23/08:00am 1.0 -2.0 0.5 96 0.2 N 6 9 3 5 - - 0.2
23/07:30am 1.2 -2.0 0.7 96 0.2 NW 7 11 4 6 - - 0.2
23/07:00am 0.6 -2.7 0.1 96 0.2 SSW 7 15 4 8 - - 0.2
23/06:30am 0.5 -3.9 0.2 98 0.1 NNW 13 15 7 8 - - 0.2
23/06:00am 0.0 - - - - N 4 9 2 5 - - 0.2
23/05:30am -0.3 - - - - NNE 7 9 4 5 - - 0.2
23/05:00am -0.8 - - - - SW 2 11 1 6 - - 0.2
23/04:30am -1.2 - - - - N 6 9 3 5 - - 0.2
23/04:00am -2.2 - - - - NNW 7 9 4 5 - - 0.2
23/03:30am -2.2 - - - - N 7 9 4 5 - - 0.2
23/03:00am -1.7 - - - - N 7 11 4 6 - - 0.2
23/02:30am -1.8 - - - - NW 7 11 4 6 - - 0.2
23/02:00am -1.3 - - - - N 6 9 3 5 - - 0.2
23/01:30am -0.8 - - - - CALM 0 0 0 0 - - 0.2
23/01:00am -1.0 - - - - N 4 7 2 4 - - 0.2
23/12:30am -0.7 - - - - CALM 0 7 0 4 - - 0.2
23/12:00am -0.3 - - - - S 7 11 4 6 - - 0.2
 
Date/Time
EST
Temp
°C
App
Temp
°C
Dew
Point
°C
Rel
Hum
%
Delta-T
°C
Wind Press
QNH
hPa
Press
MSL
hPa
Rain since
9am
mm
Dir  Spd
km/h
Gust
km/h
Spd
kts
Gust
kts
22/11:30pm -0.4 - - - - CALM 0 6 0 3 - - 0.2
22/11:00pm -0.5 - - - - WSW 9 13 5 7 - - 0.2
22/10:30pm 0.0 - - - - NW 6 7 3 4 - - 0.2
22/10:00pm 0.1 - - - - NNW 4 7 2 4 - - 0.2
22/09:30pm 0.7 -2.6 0.2 96 0.2 NW 7 11 4 6 - - 0.2
22/09:00pm 1.1 -1.2 0.6 96 0.2 SW 2 7 1 4 - - 0.2
22/08:30pm 1.2 -2.5 0.1 92 0.4 S 9 9 5 5 - - 0.2
22/08:00pm 1.2 -2.1 0.4 94 0.3 N 7 9 4 5 - - 0.2
22/07:30pm 2.0 0.2 1.5 96 0.2 CALM 0 0 0 0 - - 0.2
22/07:00pm 2.3 0.5 1.5 94 0.3 CALM 0 0 0 0 - - 0.2
22/06:30pm 2.3 0.5 1.3 93 0.4 CALM 0 0 0 0 - - 0.2
22/06:00pm 2.2 -0.4 1.2 93 0.4 NW 4 7 2 4 - - 0.2
22/05:30pm 2.0 0.1 0.7 91 0.5 CALM 0 0 0 0 - - 0.2
22/05:00pm 2.5 -0.1 1.2 91 0.5 S 4 7 2 4 - - 0.2
22/04:30pm 3.3 1.5 1.5 88 0.7 CALM 0 0 0 0 - - 0.2
22/04:00pm 4.9 2.8 1.9 81 1.2 NNE 2 7 1 4 - - 0.2
22/03:30pm 6.0 3.3 2.4 78 1.5 N 6 9 3 5 - - 0.2
22/03:00pm 6.3 4.6 1.6 72 1.9 CALM 0 2 0 1 - - 0.2
22/02:30pm 4.6 1.5 1.3 79 1.3 ENE 7 9 4 5 - - 0.2
22/02:00pm 4.0 2.2 1.5 84 1.0 CALM 0 0 0 0 - - 0.2
22/01:30pm 3.3 0.3 1.0 85 0.9 NNW 6 9 3 5 - - 0.2
22/01:00pm 2.2 -0.8 0.6 89 0.6 NE 6 9 3 5 - - 0.2
22/12:30pm 1.5 - - - - NNE 6 9 3 5 - - 0.2
22/12:00pm 0.9 - - - - N 9 11 5 6 - - 0.2
22/11:30am 0.5 - - - - NNE 7 11 4 6 - - 0.2
22/11:00am 0.1 - - - - NNE 7 11 4 6 - - 0.2
22/10:30am -0.2 - - - - N 7 11 4 6 - - 0.2
22/10:00am -0.3 - - - - N 4 11 2 6 - - 0.2
22/09:30am -0.3 - - - - N 7 7 4 4 - - 0.2
22/09:00am -0.5 - - - - CALM 0 0 0 0 - - 0.0
22/08:30am -0.6 - - - - CALM 0 6 0 3 - - 0.0
22/08:00am -0.8 - - - - N 6 6 3 3 - - 0.0
22/07:30am -0.9 - - - - NE 9 11 5 6 - - 0.0
22/07:00am -0.7 - - - - N 7 9 4 5 - - 0.0
22/06:30am -1.0 - - - - N 6 7 3 4 - - 0.0
22/06:00am -0.7 - - - - N 7 7 4 4 - - 0.0
22/05:30am -0.5 - - - - CALM 0 0 0 0 - - 0.0
22/05:00am -0.7 - - - - CALM 0 0 0 0 - - 0.0
22/04:30am -0.9 - - - - CALM 0 0 0 0 - - 0.0
22/04:00am -1.1 - - - - N 6 7 3 4 - - 0.0
22/03:30am -1.7 - - - - NNE 2 6 1 3 - - 0.0
22/03:00am -2.1 - - - - CALM 0 0 0 0 - - 0.0
22/02:30am -2.5 - - - - N 7 7 4 4 - - 0.0
22/02:00am -2.7 - - - - W 6 9 3 5 - - 0.0
22/01:30am -2.8 - - - - NNW 6 7 3 4 - - 0.0
22/01:00am -2.5 - - - - CALM 0 0 0 0 - - 0.0
22/12:30am -2.0 - - - - N 6 9 3 5 - - 0.0
22/12:00am -0.9 - - - - WSW 2 7 1 4 - - 0.0
 
Date/Time
EST
Temp
°C
App
Temp
°C
Dew
Point
°C
Rel
Hum
%
Delta-T
°C
Wind Press
QNH
hPa
Press
MSL
hPa
Rain since
9am
mm
Dir  Spd
km/h
Gust
km/h
Spd
kts
Gust
kts
21/11:30pm -1.5 - - - - SW 6 9 3 5 - - 0.0
21/11:00pm -0.9 - - - - CALM 0 0 0 0 - - 0.0
21/10:30pm -0.3 - - - - WSW 9 13 5 7 - - 0.0
21/10:00pm -0.2 - - - - WSW 9 11 5 6 - - 0.0
21/09:30pm -0.2 - - - - CALM 0 0 0 0 - - 0.0
21/09:00pm 0.7 -2.1 -0.1 94 0.3 N 4 9 2 5 - - 0.0
21/08:30pm 1.6 -1.6 0.8 94 0.3 NNE 7 9 4 5 - - 0.0
21/08:00pm 1.8 -1.2 0.5 91 0.5 N 6 9 3 5 - - 0.0
21/07:30pm 1.9 -1.2 1.1 94 0.3 NNW 7 11 4 6 - - 0.0
21/07:00pm 1.9 0.0 0.8 92 0.4 CALM 0 7 0 4 - - 0.0
21/06:30pm 2.8 0.6 1.3 90 0.6 NE 2 9 1 5 - - 0.0
21/06:00pm 4.2 0.9 2.7 90 0.6 N 9 13 5 7 - - 0.0
21/05:30pm 3.9 1.0 1.6 85 0.9 E 6 9 3 5 - - 0.0
21/05:00pm 5.3 2.0 2.4 81 1.2 W 9 11 5 6 - - 0.0
21/04:30pm 6.5 3.2 2.7 77 1.6 W 9 13 5 7 - - 0.0
21/04:00pm 8.2 5.3 2.8 69 2.3 NW 7 11 4 6 - - 0.0
21/03:30pm 7.9 4.2 2.2 67 2.4 WSW 11 15 6 8 - - 0.0
21/03:00pm 8.9 5.1 2.0 62 2.9 WSW 11 19 6 10 - - 0.0
21/02:30pm 10.4 7.1 2.3 57 3.4 WSW 9 13 5 7 - - 0.0
21/02:00pm 10.2 5.3 1.7 55 3.6 WSW 17 26 9 14 - - 0.0
21/01:30pm 10.1 5.6 1.9 57 3.4 WNW 15 24 8 13 - - 0.0
21/01:00pm 10.9 7.4 1.5 52 3.9 NNE 9 13 5 7 - - 0.0
21/12:30pm 9.0 6.1 1.6 60 3.1 WNW 6 9 3 5 - - 0.0
21/12:00pm 9.5 6.6 1.6 58 3.3 NW 6 11 3 6 - - 0.0
21/11:30am 8.5 4.7 1.5 61 2.9 W 11 17 6 9 - - 0.0
21/11:00am 8.4 4.8 2.8 68 2.4 WSW 11 22 6 12 - - 0.0
21/10:30am 8.3 5.6 2.7 68 2.4 E 6 7 3 4 - - 0.0
21/10:00am 7.9 5.7 3.2 72 2.0 N 4 9 2 5 - - 0.0
21/09:30am 6.9 3.8 3.4 78 1.5 NNW 9 11 5 6 - - 0.0
21/09:00am 7.2 3.9 4.5 83 1.2 SSW 11 17 6 9 - - 3.4
21/08:30am 5.5 2.4 3.4 86 0.9 S 9 11 5 6 - - 3.4
21/08:00am 5.4 2.7 2.7 83 1.1 ENE 6 6 3 3 - - 3.4
21/07:30am 5.6 2.4 3.0 83 1.1 ENE 9 13 5 7 - - 3.4
21/07:00am 6.6 3.6 2.3 74 1.8 SSW 7 13 4 7 - - 3.4
21/06:30am 7.3 2.8 2.3 70 2.1 WNW 15 19 8 10 - - 3.4
21/06:00am 7.3 2.4 1.7 67 2.3 WNW 17 26 9 14 - - 3.4
21/05:30am 6.3 3.1 3.2 80 1.3 N 9 11 5 6 - - 3.4
21/05:00am 6.8 3.5 2.2 72 1.9 WSW 9 13 5 7 - - 3.4
21/04:30am 6.9 3.4 1.5 68 2.2 NNW 9 15 5 8 - - 3.4
21/04:00am 8.0 4.4 0.6 59 3.0 NW 9 13 5 7 - - 3.4
21/03:30am 8.0 2.9 0.9 61 2.9 NW 17 30 9 16 - - 3.4
21/03:00am 7.3 3.1 1.7 67 2.3 NW 13 28 7 15 - - 3.4
21/02:30am 8.4 4.3 2.5 66 2.5 W 13 26 7 14 - - 3.2
21/02:00am 8.9 4.1 0.2 54 3.5 NW 15 24 8 13 - - 3.2
21/01:30am 9.1 4.4 0.8 56 3.4 WNW 15 26 8 14 - - 3.2
21/01:00am 9.5 4.0 1.6 58 3.3 NW 20 32 11 17 - - 3.2
21/12:30am 9.4 3.5 1.8 59 3.2 NW 22 39 12 21 - - 3.2
21/12:00am 9.1 2.1 4.1 71 2.2 WNW 30 48 16 26 - - 3.2
 
Date/Time
EST
Temp
°C
App
Temp
°C
Dew
Point
°C
Rel
Hum
%
Delta-T
°C
Wind Press
QNH
hPa
Press
MSL
hPa
Rain since
9am
mm
Dir  Spd
km/h
Gust
km/h
Spd
kts
Gust
kts
20/11:42pm 10.5 3.5 2.1 56 3.6 W 28 67 15 36 - - 3.0
20/11:30pm 10.5 4.3 2.4 57 3.5 W 24 48 13 26 - - 3.0
20/11:00pm 10.8 4.2 4.1 63 3.0 WNW 28 59 15 32 - - 3.0
20/10:36pm 10.5 3.9 4.3 65 2.8 WNW 28 50 15 27 - - 3.0
20/10:30pm 10.7 4.9 4.3 64 2.9 WNW 24 46 13 25 - - 3.0
20/10:00pm 11.1 6.1 4.5 64 3.0 WNW 20 37 11 20 - - 3.0
20/09:30pm 11.0 6.8 5.9 71 2.4 NW 17 37 9 20 - - 3.0
20/09:00pm 11.8 6.0 6.3 69 2.6 W 26 52 14 28 - - 2.8
20/08:54pm 11.8 5.7 6.6 70 2.5 W 28 52 15 28 - - 2.8
20/08:30pm 12.9 8.1 9.0 77 2.0 WNW 24 44 13 24 - - 2.4
20/08:00pm 14.6 9.3 6.9 60 3.8 NNW 24 48 13 26 - - 0.0
20/07:30pm 14.9 9.3 5.5 53 4.5 N 24 33 13 18 - - 0.0
20/07:00pm 15.0 7.8 5.1 51 4.7 N 32 46 17 25 - - 0.0
20/06:30pm 15.0 8.5 4.6 50 4.8 N 28 48 15 26 - - 0.0
20/06:29pm 14.9 8.4 4.7 50 4.8 N 28 48 15 26 - - 0.0
20/06:00pm 15.5 8.2 4.7 48 5.1 NNW 32 46 17 25 - - 0.0
20/05:48pm 15.3 8.8 4.5 48 5.0 NNW 28 59 15 32 - - 0.0
20/05:30pm 15.0 9.3 5.1 51 4.7 NNW 24 33 13 18 - - 0.0
20/05:00pm 14.6 9.8 5.4 54 4.3 N 20 35 11 19 - - 0.0
20/04:30pm 14.5 8.6 5.8 56 4.1 N 26 35 14 19 - - 0.0
20/04:00pm 15.1 7.4 5.5 52 4.6 NNW 35 59 19 32 - - 0.0
20/03:30pm 15.1 7.1 5.8 53 4.5 N 37 56 20 30 - - 0.0
20/03:20pm 15.4 7.7 5.4 51 4.8 NNW 35 54 19 29 - - 0.0
20/03:00pm 15.5 7.7 5.0 49 5.0 NNW 35 52 19 28 - - 0.0
20/02:30pm 15.8 7.1 4.3 46 5.4 NNW 39 59 21 32 - - 0.0
20/02:10pm 15.9 6.4 3.9 44 5.6 NNW 43 61 23 33 - - 0.0
20/02:00pm 15.9 6.5 4.2 45 5.4 NNW 43 59 23 32 - - 0.0
20/01:30pm 16.9 7.0 4.8 44 5.8 NNW 46 67 25 36 - - 0.0
20/01:02pm 16.3 8.6 5.3 48 5.3 NW 35 54 19 29 - - 0.0
20/01:00pm 16.5 9.2 5.6 48 5.2 NW 33 50 18 27 - - 0.0
20/12:30pm 16.4 8.1 6.2 51 5.0 NNW 39 57 21 31 - - 0.0
20/12:03pm 16.0 9.0 7.0 55 4.4 NNW 33 57 18 31 - - 0.0
20/12:00pm 16.0 9.1 7.2 56 4.4 N 33 41 18 22 - - 0.0
20/11:30am 15.5 9.1 6.8 56 4.3 N 30 50 16 27 - - 0.0
20/11:29am 15.4 9.4 6.9 57 4.2 N 28 50 15 27 - - 0.0
20/11:00am 15.4 8.9 6.4 55 4.4 N 30 39 16 21 - - 0.0
20/10:30am 15.1 8.6 6.5 56 4.2 N 30 41 16 22 - - 0.0
20/10:00am 14.1 7.0 5.5 56 4.1 N 32 41 17 22 - - 0.0
20/09:47am 13.7 7.3 5.2 56 4.0 N 28 41 15 22 - - 0.0
20/09:30am 13.2 9.5 6.4 63 3.2 N 15 22 8 12 - - 0.0
20/09:00am 11.1 8.1 6.2 72 2.3 N 11 17 6 9 - - 0.0
20/08:30am 10.9 7.8 5.5 69 2.5 N 11 17 6 9 - - 0.0

Latest Capital City Observations: Canberra | Sydney | Melbourne | Brisbane | Adelaide | Perth | Hobart | Darwin

Other Formats:

Comma delimited format used in spreadsheet applications
http://www.bom.gov.au/fwo/IDT60901/IDT60901.94964.axf

JavaScript Object Notation format (JSON) in row-major order
http://www.bom.gov.au/fwo/IDT60901/IDT60901.94964.json